Observation data for Aspermont on 10/15/2019      Previous  Date       Current Mesonet Observations  Soil Data  Daily Summary Page  Observations in Plain Language
KASR 150500Z 17007KT 20/16 A2991 RMK A01 T01980164  RH  083%=      5-min Rain = 0
KASR 150505Z 17008KT 20/16 A2991 RMK A01 T01970164  RH  083%=      5-min Rain = 0
KASR 150510Z 17008KT 20/16 A2991 RMK A01 T01970164  RH  083%=      5-min Rain = 0
KASR 150515Z 17007KT 20/16 A2991 RMK A01 T01960164  RH  083%=      5-min Rain = 0
KASR 150520Z 17007KT 20/16 A2991 RMK A01 T01950163  RH  084%=      5-min Rain = 0
KASR 150525Z 17007KT 20/16 A2991 RMK A01 T01950163  RH  084%=      5-min Rain = 0
KASR 150530Z 17007KT 19/16 A2991 RMK A01 T01940163  RH  084%=      5-min Rain = 0
KASR 150535Z 17007KT 19/16 A2991 RMK A01 T01930162  RH  084%=      5-min Rain = 0
KASR 150540Z 17007KT 19/16 A2991 RMK A01 T01930162  RH  085%=      5-min Rain = 0
KASR 150545Z 17007KT 19/16 A299 RMK A01 T01930162  RH  084%=      5-min Rain = 0
KASR 150550Z 17007KT 19/16 A299 RMK A01 T01930163  RH  084%=      5-min Rain = 0
KASR 150555Z 17007KT 19/16 A299 RMK A01 T01930162  RH  085%=      5-min Rain = 0
KASR 150600Z 17007KT 19/16 A299 RMK A01 T01920162  RH  085%=      5-min Rain = 0
KASR 150605Z 17007KT 19/16 A299 RMK A01 T01920162  RH  085%=      5-min Rain = 0
KASR 150610Z 17007KT 19/16 A299 RMK A01 T01920162  RH  085%=      5-min Rain = 0
KASR 150615Z 17007KT 19/16 A299 RMK A01 T01920162  RH  085%=      5-min Rain = 0
KASR 150620Z 17007KT 19/16 A299 RMK A01 T01930162  RH  085%=      5-min Rain = 0
KASR 150625Z 18007KT 19/16 A299 RMK A01 T01920162  RH  085%=      5-min Rain = 0
KASR 150630Z 18007KT 19/16 A299 RMK A01 T01920162  RH  085%=      5-min Rain = 0
KASR 150635Z 17007KT 19/16 A2989 RMK A01 T01920162  RH  085%=      5-min Rain = 0
KASR 150640Z 17007KT 19/16 A2989 RMK A01 T01930162  RH  084%=      5-min Rain = 0
KASR 150645Z 18007KT 19/16 A2989 RMK A01 T01920162  RH  084%=      5-min Rain = 0
KASR 150650Z 18007KT 19/16 A2989 RMK A01 T01910162  RH  085%=      5-min Rain = 0
KASR 150655Z 18007KT 19/16 A2989 RMK A01 T01910161  RH  085%=      5-min Rain = 0
KASR 150700Z 19008KT 19/16 A2989 RMK A01 T01930162  RH  084%=      5-min Rain = 0
KASR 150705Z 19007KT 19/16 A2989 RMK A01 T01940161  RH  083%=      5-min Rain = 0
KASR 150710Z 19007KT 20/16 A2989 RMK A01 T01950162  RH  083%=      5-min Rain = 0
KASR 150715Z 19006KT 20/16 A2989 RMK A01 T01950161  RH  083%=      5-min Rain = 0
KASR 150720Z 20005KT 20/16 A2989 RMK A01 T01950161  RH  083%=      5-min Rain = 0
KASR 150725Z 20005KT 20/16 A2989 RMK A01 T01950161  RH  083%=      5-min Rain = 0
KASR 150730Z 20004KT 20/16 A2989 RMK A01 T01950161  RH  083%=      5-min Rain = 0
KASR 150735Z 22002KT 19/16 A2989 RMK A01 T01940160  RH  083%=      5-min Rain = 0
KASR 150740Z 24001KT 19/16 A2989 RMK A01 T01940160  RH  082%=      5-min Rain = 0
KASR 150745Z 36000KT 19/16 A2989 RMK A01 T01920159  RH  083%=      5-min Rain = 0
KASR 150750Z 04000KT 19/16 A299 RMK A01 T01900159  RH  084%=      5-min Rain = 0
KASR 150755Z 31000KT 19/16 A299 RMK A01 T01890159  RH  084%=      5-min Rain = 0
KASR 150800Z 21001KT 19/16 A299 RMK A01 T01880159  RH  085%=      5-min Rain = 0
KASR 150805Z 21002KT 19/16 A299 RMK A01 T01890158  RH  084%=      5-min Rain = 0
KASR 150810Z 20003KT 19/16 A299 RMK A01 T01920159  RH  083%=      5-min Rain = 0
KASR 150815Z 19004KT 19/16 A2989 RMK A01 T01920158  RH  083%=      5-min Rain = 0
KASR 150820Z 18004KT 19/16 A2989 RMK A01 T01900158  RH  084%=      5-min Rain = 0
KASR 150825Z 19004KT 19/16 A2989 RMK A01 T01890158  RH  084%=      5-min Rain = 0
KASR 150830Z 19004KT 19/16 A2989 RMK A01 T01890158  RH  084%=      5-min Rain = 0
KASR 150835Z 19004KT 19/16 A2989 RMK A01 T01880158  RH  084%=      5-min Rain = 0
KASR 150840Z 20005KT 19/16 A2989 RMK A01 T01880157  RH  084%=      5-min Rain = 0
KASR 150845Z 20005KT 19/16 A2989 RMK A01 T01870157  RH  085%=      5-min Rain = 0
KASR 150850Z 21004KT 19/16 A2989 RMK A01 T01870157  RH  085%=      5-min Rain = 0
KASR 150855Z 20004KT 19/16 A2989 RMK A01 T01880157  RH  084%=      5-min Rain = 0
KASR 150900Z 20005KT 19/16 A2989 RMK A01 T01880157  RH  084%=      5-min Rain = 0
KASR 150905Z 20005KT 19/16 A2988 RMK A01 T01890157  RH  083%=      5-min Rain = 0
KASR 150910Z 20004KT 19/16 A2988 RMK A01 T01900156  RH  083%=      5-min Rain = 0
KASR 150915Z 20004KT 19/16 A2988 RMK A01 T01900156  RH  083%=      5-min Rain = 0
KASR 150920Z 19005KT 19/16 A2988 RMK A01 T01890156  RH  083%=      5-min Rain = 0
KASR 150925Z 20004KT 19/16 A2988 RMK A01 T01880156  RH  084%=      5-min Rain = 0
KASR 150930Z 20003KT 19/16 A2988 RMK A01 T01870156  RH  084%=      5-min Rain = 0
KASR 150935Z 20003KT 19/16 A2988 RMK A01 T01870156  RH  084%=      5-min Rain = 0
KASR 150940Z 19004KT 19/16 A2988 RMK A01 T01860155  RH  084%=      5-min Rain = 0
KASR 150945Z 18004KT 18/16 A2988 RMK A01 T01840155  RH  085%=      5-min Rain = 0
KASR 150950Z 17004KT 18/16 A2988 RMK A01 T01840155  RH  085%=      5-min Rain = 0
KASR 150955Z 17003KT 19/16 A2988 RMK A01 T01850155  RH  085%=      5-min Rain = 0
KASR 151000Z 18002KT 19/16 A2989 RMK A01 T01850155  RH  084%=      5-min Rain = 0
KASR 151005Z 19002KT 19/16 A2989 RMK A01 T01860155  RH  084%=      5-min Rain = 0
KASR 151010Z 21002KT 19/16 A2989 RMK A01 T01860155  RH  084%=      5-min Rain = 0
KASR 151015Z 22003KT 19/15 A2989 RMK A01 T01870154  RH  083%=      5-min Rain = 0
KASR 151020Z 21004KT 19/15 A2989 RMK A01 T01860154  RH  083%=      5-min Rain = 0
KASR 151025Z 19005KT 19/15 A2989 RMK A01 T01860154  RH  084%=      5-min Rain = 0
KASR 151030Z 19005KT 19/15 A2989 RMK A01 T01880154  RH  082%=      5-min Rain = 0
KASR 151035Z 20005KT 19/15 A2989 RMK A01 T01910154  RH  081%=      5-min Rain = 0
KASR 151040Z 20004KT 19/15 A2989 RMK A01 T01940154  RH  080%=      5-min Rain = 0
KASR 151045Z 22003KT 20/15 A2989 RMK A01 T01960154  RH  079%=      5-min Rain = 0
KASR 151050Z 21003KT 20/15 A2989 RMK A01 T01970153  RH  078%=      5-min Rain = 0
KASR 151055Z 20003KT 20/15 A2989 RMK A01 T01970153  RH  077%=      5-min Rain = 0
KASR 151100Z 20002KT 20/15 A2989 RMK A01 T01960153  RH  078%=      5-min Rain = 0
KASR 151105Z 21002KT 19/15 A299 RMK A01 T01940153  RH  079%=      5-min Rain = 0
KASR 151110Z 21002KT 19/15 A299 RMK A01 T01920153  RH  080%=      5-min Rain = 0
KASR 151115Z 20003KT 19/15 A299 RMK A01 T01910153  RH  080%=      5-min Rain = 0
KASR 151120Z 19004KT 19/15 A2989 RMK A01 T01910153  RH  080%=      5-min Rain = 0
KASR 151125Z 19004KT 19/15 A299 RMK A01 T01910153  RH  080%=      5-min Rain = 0
KASR 151130Z 19005KT 19/15 A299 RMK A01 T01900154  RH  081%=      5-min Rain = 0
KASR 151135Z 19005KT 19/15 A299 RMK A01 T01890154  RH  082%=      5-min Rain = 0
KASR 151140Z 18006KT 19/15 A299 RMK A01 T01880154  RH  082%=      5-min Rain = 0
KASR 151145Z 18006KT 19/15 A299 RMK A01 T01880153  RH  082%=      5-min Rain = 0
KASR 151150Z 18006KT 19/15 A299 RMK A01 T01880153  RH  082%=      5-min Rain = 0
KASR 151155Z 18006KT 19/15 A299 RMK A01 T01880153  RH  082%=      5-min Rain = 0
KASR 151200Z 18006KT 19/15 A299 RMK A01 T01870153  RH  082%=      5-min Rain = 0
KASR 151205Z 18007KT 19/15 A299 RMK A01 T01870153  RH  082%=      5-min Rain = 0
KASR 151210Z 18006KT 19/15 A299 RMK A01 T01870152  RH  082%=      5-min Rain = 0
KASR 151215Z 18005KT 19/15 A299 RMK A01 T01870152  RH  082%=      5-min Rain = 0
KASR 151220Z 18006KT 19/15 A299 RMK A01 T01870152  RH  082%=      5-min Rain = 0
KASR 151225Z 18007KT 19/15 A299 RMK A01 T01860152  RH  082%=      5-min Rain = 0
KASR 151230Z 19007KT 19/15 A2991 RMK A01 T01850152  RH  083%=      5-min Rain = 0
KASR 151235Z 19007KT 18/15 A2991 RMK A01 T01840151  RH  083%=      5-min Rain = 0
KASR 151240Z 19007KT 18/15 A2991 RMK A01 T01810151  RH  084%=      5-min Rain = 0
KASR 151245Z 19007KT 18/15 A2991 RMK A01 T01800151  RH  085%=      5-min Rain = 0
KASR 151250Z 19007KT 18/15 A2991 RMK A01 T01810151  RH  084%=      5-min Rain = 0
KASR 151255Z 18007KT 18/15 A2991 RMK A01 T01800151  RH  085%=      5-min Rain = 0
KASR 151300Z 19006KT 18/15 A2991 RMK A01 T01790150  RH  085%=      5-min Rain = 0
KASR 151305Z 19006KT 18/15 A2991 RMK A01 T01800151  RH  085%=      5-min Rain = 0
KASR 151310Z 19006KT 18/15 A2991 RMK A01 T01820151  RH  084%=      5-min Rain = 0
KASR 151315Z 19006KT 18/15 A2991 RMK A01 T01820151  RH  084%=      5-min Rain = 0
KASR 151320Z 19006KT 18/15 A2991 RMK A01 T01820151  RH  084%=      5-min Rain = 0
KASR 151325Z 19005KT 18/15 A2991 RMK A01 T01830152  RH  084%=      5-min Rain = 0
KASR 151330Z 19005KT 19/16 A2991 RMK A01 T01890155  RH  082%=      5-min Rain = 0
KASR 151335Z 20004KT 20/16 A2991 RMK A01 T01950156  RH  080%=      5-min Rain = 0
KASR 151340Z 21004KT 20/16 A2991 RMK A01 T01990156  RH  078%=      5-min Rain = 0
KASR 151345Z 21004KT 20/16 A2991 RMK A01 T02020156  RH  076%=      5-min Rain = 0
KASR 151350Z 22004KT 21/16 A2991 RMK A01 T02050156  RH  075%=      5-min Rain = 0
KASR 151355Z 23005KT 21/16 A2992 RMK A01 T02090155  RH  073%=      5-min Rain = 0
KASR 151400Z 23005KT 21/16 A2992 RMK A01 T02120155  RH  071%=      5-min Rain = 0
KASR 151405Z 23005KT 22/16 A2992 RMK A01 T02160155  RH  070%=      5-min Rain = 0
KASR 151410Z 23005KT 22/16 A2992 RMK A01 T02180155  RH  069%=      5-min Rain = 0
KASR 151415Z 23004KT 22/16 A2992 RMK A01 T02200155  RH  068%=      5-min Rain = 0
KASR 151420Z 24003KT 22/16 A2992 RMK A01 T02220156  RH  068%=      5-min Rain = 0
KASR 151425Z 23003KT 22/16 A2993 RMK A01 T02240156  RH  067%=      5-min Rain = 0
KASR 151430Z 22003KT 23/16 A2993 RMK A01 T02260157  RH  066%=      5-min Rain = 0
KASR 151435Z 21004KT 23/16 A2993 RMK A01 T02290158  RH  066%=      5-min Rain = 0
KASR 151440Z 20004KT 23/16 A2993 RMK A01 T02310159  RH  065%=      5-min Rain = 0
KASR 151445Z 20005KT 23/16 A2993 RMK A01 T02320158  RH  064%=      5-min Rain = 0
KASR 151450Z 21006KT 23/16 A2993 RMK A01 T02340158  RH  064%=      5-min Rain = 0
KASR 151455Z 22006KT 24/16 A2993 RMK A01 T02370157  RH  062%=      5-min Rain = 0
KASR 151500Z 23006KT 24/16 A2993 RMK A01 T02400157  RH  061%=      5-min Rain = 0
KASR 151505Z 23005KT 24/16 A2993 RMK A01 T02430159  RH  061%=      5-min Rain = 0
KASR 151510Z 23006KT 25/16 A2993 RMK A01 T02530160  RH  058%=      5-min Rain = 0
KASR 151515Z 24005KT 26/16 A2993 RMK A01 T02620162  RH  055%=      5-min Rain = 0
KASR 151520Z 24005KT 27/16 A2993 RMK A01 T02680163  RH  054%=      5-min Rain = 0
KASR 151525Z 24006KT 27/16 A2993 RMK A01 T02680163  RH  054%=      5-min Rain = 0
KASR 151530Z 24007KT 27/16 A2993 RMK A01 T02670164  RH  054%=      5-min Rain = 0
KASR 151535Z 22007KT 28/17 A2993 RMK A01 T02760165  RH  052%=      5-min Rain = 0
KASR 151540Z 22006KT 28/17 A2993 RMK A01 T02750165  RH  052%=      5-min Rain = 0
KASR 151545Z 21007KT 28/17 A2993 RMK A01 T02800165  RH  051%=      5-min Rain = 0
KASR 151550Z 22008KT 28/16 A2992 RMK A01 T02830163  RH  049%=      5-min Rain = 0
KASR 151555Z 23007KT 28/16 A2992 RMK A01 T02830164  RH  050%=      5-min Rain = 0
KASR 151600Z 22009KT 28/16 A2992 RMK A01 T02830164  RH  050%=      5-min Rain = 0
KASR 151605Z 23008KT 29/16 A2992 RMK A01 T02850163  RH  049%=      5-min Rain = 0
KASR 151610Z 23009KT 29/16 A2992 RMK A01 T02900163  RH  048%=      5-min Rain = 0
KASR 151615Z 24007KT 29/16 A2992 RMK A01 T02900163  RH  047%=      5-min Rain = 0
KASR 151620Z 24007KT 30/16 A2992 RMK A01 T02950163  RH  046%=      5-min Rain = 0
KASR 151625Z 26007KT 30/16 A2993 RMK A01 T02970160  RH  045%=      5-min Rain = 0
KASR 151630Z 27007G12KT 30/16 A2993 RMK A01 T02970157  RH  043%=      5-min Rain = 0
KASR 151635Z 25005KT 30/16 A2992 RMK A01 T02990159  RH  044%=      5-min Rain = 0
KASR 151640Z 27004KT 30/16 A2992 RMK A01 T03000160  RH  044%=      5-min Rain = 0
KASR 151645Z 26005KT 30/16 A2992 RMK A01 T03020159  RH  043%=      5-min Rain = 0
KASR 151650Z 24005G11KT 30/16 A2992 RMK A01 T03040164  RH  044%=      5-min Rain = 0
KASR 151655Z 26006KT 31/16 A2992 RMK A01 T03090155  RH  040%=      5-min Rain = 0
KASR 151700Z 30007KT 31/12 A2992 RMK A01 T03120123  RH  032%=      5-min Rain = 0
KASR 151705Z 29005G10KT 31/12 A2992 RMK A01 T03130124  RH  032%=      5-min Rain = 0
KASR 151710Z 26002KT 31/13 A2991 RMK A01 T03130133  RH  034%=      5-min Rain = 0
KASR 151715Z 28007KT 32/12 A2991 RMK A01 T03150122  RH  031%=      5-min Rain = 0
KASR 151720Z 29004KT 31/11 A2991 RMK A01 T03110113  RH  030%=      5-min Rain = 0
KASR 151725Z 29006KT 32/10 A2991 RMK A01 T03150099  RH  027%=      5-min Rain = 0
KASR 151730Z 35007KT 32/11 A2991 RMK A01 T03160108  RH  028%=      5-min Rain = 0
KASR 151735Z 34003KT 31/11 A2991 RMK A01 T03140114  RH  030%=      5-min Rain = 0
KASR 151740Z 31006G11KT 32/11 A2991 RMK A01 T03180112  RH  029%=      5-min Rain = 0
KASR 151745Z 28004KT 31/10 A2991 RMK A01 T03130104  RH  028%=      5-min Rain = 0
KASR 151750Z 34009G14KT 32/10 A299 RMK A01 T03190103  RH  027%=      5-min Rain = 0
KASR 151755Z 33011G17KT 32/11 A2991 RMK A01 T03230111  RH  028%=      5-min Rain = 0
KASR 151800Z 33011G16KT 32/11 A2991 RMK A01 T03200112  RH  028%=      5-min Rain = 0
KASR 151805Z 34011KT 32/11 A299 RMK A01 T03190109  RH  028%=      5-min Rain = 0
KASR 151810Z 33009G14KT 32/11 A299 RMK A01 T03170109  RH  028%=      5-min Rain = 0
KASR 151815Z 33011KT 31/11 A299 RMK A01 T03100109  RH  029%=      5-min Rain = 0
KASR 151820Z 32010KT 31/11 A299 RMK A01 T03120108  RH  029%=      5-min Rain = 0
KASR 151825Z 34009KT 32/11 A299 RMK A01 T03150105  RH  028%=      5-min Rain = 0
KASR 151830Z 32009KT 32/10 A299 RMK A01 T03220102  RH  026%=      5-min Rain = 0
KASR 151835Z 33009G16KT 32/10 A299 RMK A01 T03210098  RH  026%=      5-min Rain = 0
KASR 151840Z 35010G16KT 32/10 A299 RMK A01 T03200098  RH  026%=      5-min Rain = 0
KASR 151845Z 34010G16KT 32/10 A299 RMK A01 T03190099  RH  026%=      5-min Rain = 0
KASR 151850Z 35012G17KT 32/10 A299 RMK A01 T03240101  RH  026%=      5-min Rain = 0
KASR 151855Z 35010G15KT 32/10 A299 RMK A01 T03190101  RH  027%=      5-min Rain = 0
KASR 151900Z 33008G13KT 31/10 A299 RMK A01 T03130098  RH  027%=      5-min Rain = 0
KASR 151905Z 34010G15KT 32/10 A299 RMK A01 T03190104  RH  027%=      5-min Rain = 0
KASR 151910Z 34012KT 32/10 A299 RMK A01 T03150099  RH  027%=      5-min Rain = 0
KASR 151915Z 34010G15KT 32/10 A299 RMK A01 T03180096  RH  026%=      5-min Rain = 0
KASR 151920Z 35014G19KT 32/08 A299 RMK A01 T03210075  RH  022%=      5-min Rain = 0
KASR 151925Z 34016G22KT 32/06 A299 RMK A01 T03190064  RH  021%=      5-min Rain = 0
KASR 151930Z 35016KT 32/06 A299 RMK A01 T03150060  RH  021%=      5-min Rain = 0
KASR 151935Z 35016G21KT 32/06 A299 RMK A01 T03160060  RH  020%=      5-min Rain = 0
KASR 151940Z 35017G23KT 30/05 A299 RMK A01 T03040052  RH  021%=      5-min Rain = 0
KASR 151945Z 35016G21KT 30/05 A2991 RMK A01 T02950047  RH  021%=      5-min Rain = 0
KASR 151950Z 35015G20KT 29/05 A2991 RMK A01 T02920047  RH  021%=      5-min Rain = 0
KASR 151955Z 34015KT 30/05 A2991 RMK A01 T02960048  RH  021%=      5-min Rain = 0
KASR 152000Z 34016G22KT 29/05 A2991 RMK A01 T02910045  RH  021%=      5-min Rain = 0
KASR 152005Z 34015G20KT 29/05 A2991 RMK A01 T02930045  RH  021%=      5-min Rain = 0
KASR 152010Z 35015KT 29/04 A2991 RMK A01 T02880044  RH  021%=      5-min Rain = 0
KASR 152015Z 34017G22KT 28/04 A2991 RMK A01 T02830043  RH  022%=      5-min Rain = 0
KASR 152020Z 35016KT 27/05 A2991 RMK A01 T02740045  RH  023%=      5-min Rain = 0
KASR 152025Z 35016G21KT 27/05 A2991 RMK A01 T02710045  RH  024%=      5-min Rain = 0
KASR 152030Z 35015G20KT 27/05 A2991 RMK A01 T02740049  RH  024%=      5-min Rain = 0
KASR 152035Z 34016G21KT 28/05 A2991 RMK A01 T02750049  RH  024%=      5-min Rain = 0
KASR 152040Z 35017KT 27/05 A2991 RMK A01 T02740049  RH  024%=      5-min Rain = 0
KASR 152045Z 34016G21KT 28/06 A2991 RMK A01 T02750055  RH  025%=      5-min Rain = 0
KASR 152050Z 34016G21KT 28/06 A2991 RMK A01 T02810059  RH  025%=      5-min Rain = 0
KASR 152055Z 34016G21KT 27/06 A2992 RMK A01 T02730058  RH  026%=      5-min Rain = 0
KASR 152100Z 34017G25KT 27/06 A2992 RMK A01 T02710059  RH  026%=      5-min Rain = 0
KASR 152105Z 34015G22KT 27/06 A2992 RMK A01 T02710061  RH  027%=      5-min Rain = 0
KASR 152110Z 34016G21KT 27/07 A2992 RMK A01 T02730067  RH  027%=      5-min Rain = 0
KASR 152115Z 34017KT 27/07 A2992 RMK A01 T02720067  RH  028%=      5-min Rain = 0
KASR 152120Z 35017KT 27/07 A2992 RMK A01 T02670068  RH  028%=      5-min Rain = 0
KASR 152125Z 35016G24KT 26/07 A2992 RMK A01 T02620069  RH  030%=      5-min Rain = 0
KASR 152130Z 35016G22KT 26/07 A2992 RMK A01 T02600070  RH  030%=      5-min Rain = 0
KASR 152135Z 35017G22KT 26/07 A2993 RMK A01 T02580072  RH  031%=      5-min Rain = 0
KASR 152140Z 34016G22KT 26/07 A2993 RMK A01 T02570072  RH  031%=      5-min Rain = 0
KASR 152145Z 34017G22KT 26/07 A2993 RMK A01 T02550069  RH  031%=      5-min Rain = 0
KASR 152150Z 34016G21KT 25/07 A2993 RMK A01 T02540068  RH  031%=      5-min Rain = 0
KASR 152155Z 35015G21KT 25/07 A2994 RMK A01 T02540070  RH  031%=      5-min Rain = 0
KASR 152200Z 34014G19KT 25/07 A2994 RMK A01 T02540069  RH  031%=      5-min Rain = 0
KASR 152205Z 35013G18KT 26/07 A2994 RMK A01 T02550069  RH  031%=      5-min Rain = 0
KASR 152210Z 35017G22KT 25/07 A2994 RMK A01 T02530068  RH  031%=      5-min Rain = 0
KASR 152215Z 35017G22KT 25/07 A2994 RMK A01 T02490067  RH  032%=      5-min Rain = 0
KASR 152220Z 35018G24KT 25/07 A2994 RMK A01 T02470067  RH  032%=      5-min Rain = 0
KASR 152225Z 35015G23KT 25/07 A2994 RMK A01 T02480068  RH  032%=      5-min Rain = 0
KASR 152230Z 35017G23KT 25/07 A2994 RMK A01 T02470068  RH  032%=      5-min Rain = 0
KASR 152235Z 35016G23KT 25/07 A2995 RMK A01 T02460068  RH  033%=      5-min Rain = 0
KASR 152240Z 35017G22KT 25/07 A2995 RMK A01 T02450068  RH  033%=      5-min Rain = 0
KASR 152245Z 35017G23KT 25/07 A2995 RMK A01 T02450069  RH  033%=      5-min Rain = 0
KASR 152250Z 35016G22KT 25/07 A2995 RMK A01 T02460071  RH  033%=      5-min Rain = 0
KASR 152255Z 35014G20KT 25/07 A2995 RMK A01 T02460073  RH  034%=      5-min Rain = 0
KASR 152300Z 35015G20KT 25/07 A2995 RMK A01 T02450074  RH  034%=      5-min Rain = 0
KASR 152305Z 35015G21KT 24/08 A2995 RMK A01 T02430075  RH  035%=      5-min Rain = 0
KASR 152310Z 35015G20KT 24/08 A2995 RMK A01 T02420076  RH  035%=      5-min Rain = 0
KASR 152315Z 35016G21KT 24/08 A2996 RMK A01 T02400076  RH  036%=      5-min Rain = 0
KASR 152320Z 34015G22KT 24/08 A2996 RMK A01 T02390076  RH  036%=      5-min Rain = 0
KASR 152325Z 35012KT 24/08 A2996 RMK A01 T02380078  RH  036%=      5-min Rain = 0
KASR 152330Z 35014G19KT 24/08 A2996 RMK A01 T02370079  RH  037%=      5-min Rain = 0
KASR 152335Z 35014G20KT 24/08 A2996 RMK A01 T02370081  RH  037%=      5-min Rain = 0
KASR 152340Z 35012KT 24/08 A2996 RMK A01 T02350083  RH  039%=      5-min Rain = 0
KASR 152345Z 35013KT 23/08 A2996 RMK A01 T02330084  RH  039%=      5-min Rain = 0
KASR 152350Z 36014KT 23/09 A2997 RMK A01 T02330086  RH  040%=      5-min Rain = 0
KASR 152355Z 01015G23KT 23/10 A2997 RMK A01 T02310100  RH  044%=      5-min Rain = 0
KASR 160000Z 01013G20KT 23/11 A2997 RMK A01 T02260110  RH  049%=      5-min Rain = 0
KASR 160005Z 01015G20KT 22/11 A2998 RMK A01 T02230110  RH  050%=      5-min Rain = 0
KASR 160010Z 01014G20KT 22/11 A2998 RMK A01 T02210111  RH  050%=      5-min Rain = 0
KASR 160015Z 01012G18KT 22/11 A2998 RMK A01 T02190111  RH  051%=      5-min Rain = 0
KASR 160020Z 01013G20KT 22/11 A2999 RMK A01 T02170110  RH  051%=      5-min Rain = 0
KASR 160025Z 01013KT 22/11 A2999 RMK A01 T02160108  RH  051%=      5-min Rain = 0
KASR 160030Z 01012G17KT 22/11 A30 RMK A01 T02150107  RH  051%=      5-min Rain = 0
KASR 160035Z 01011G16KT 21/11 A30 RMK A01 T02130105  RH  051%=      5-min Rain = 0
KASR 160040Z 01011KT 21/10 A30 RMK A01 T02120104  RH  051%=      5-min Rain = 0
KASR 160045Z 01010G15KT 21/10 A30 RMK A01 T02110103  RH  051%=      5-min Rain = 0
KASR 160050Z 00010KT 21/10 A30 RMK A01 T02100101  RH  051%=      5-min Rain = 0
KASR 160055Z 00009G14KT 21/10 A3001 RMK A01 T02080100  RH  051%=      5-min Rain = 0
KASR 160100Z 00008KT 21/10 A3001 RMK A01 T02070099  RH  051%=      5-min Rain = 0
KASR 160105Z 01007KT 21/10 A3002 RMK A01 T02050098  RH  051%=      5-min Rain = 0
KASR 160110Z 01008G14KT 20/10 A3002 RMK A01 T02030096  RH  051%=      5-min Rain = 0
KASR 160115Z 00009KT 21/09 A3003 RMK A01 T02050089  RH  048%=      5-min Rain = 0
KASR 160120Z 00009KT 20/08 A3003 RMK A01 T02040083  RH  046%=      5-min Rain = 0
KASR 160125Z 36010KT 20/08 A3003 RMK A01 T02010078  RH  046%=      5-min Rain = 0
KASR 160130Z 00012G17KT 20/07 A3003 RMK A01 T02010067  RH  042%=      5-min Rain = 0
KASR 160135Z 00013G19KT 20/06 A3004 RMK A01 T02030056  RH  039%=      5-min Rain = 0
KASR 160140Z 00012G18KT 20/05 A3004 RMK A01 T02010052  RH  038%=      5-min Rain = 0
KASR 160145Z 01013KT 20/05 A3005 RMK A01 T02020048  RH  037%=      5-min Rain = 0
KASR 160150Z 00012KT 20/05 A3005 RMK A01 T02000046  RH  037%=      5-min Rain = 0
KASR 160155Z 01011G16KT 20/05 A3005 RMK A01 T01990045  RH  037%=      5-min Rain = 0
KASR 160200Z 01010G16KT 20/05 A3005 RMK A01 T01960045  RH  037%=      5-min Rain = 0
KASR 160205Z 00012KT 20/04 A3006 RMK A01 T01950044  RH  037%=      5-min Rain = 0
KASR 160210Z 00011G16KT 19/04 A3006 RMK A01 T01930044  RH  038%=      5-min Rain = 0
KASR 160215Z 00010KT 19/04 A3007 RMK A01 T01910043  RH  038%=      5-min Rain = 0
KASR 160220Z 01011G16KT 19/04 A3007 RMK A01 T01910042  RH  038%=      5-min Rain = 0
KASR 160225Z 01011KT 19/04 A3007 RMK A01 T01900041  RH  038%=      5-min Rain = 0
KASR 160230Z 01014G19KT 19/04 A3007 RMK A01 T01920039  RH  037%=      5-min Rain = 0
KASR 160235Z 01011G16KT 19/04 A3008 RMK A01 T01910039  RH  037%=      5-min Rain = 0
KASR 160240Z 01012KT 19/04 A3008 RMK A01 T01880038  RH  037%=      5-min Rain = 0
KASR 160245Z 01012KT 19/04 A3008 RMK A01 T01880037  RH  037%=      5-min Rain = 0
KASR 160250Z 01012G18KT 19/04 A3009 RMK A01 T01870035  RH  037%=      5-min Rain = 0
KASR 160255Z 01011G17KT 19/03 A3009 RMK A01 T01850033  RH  037%=      5-min Rain = 0
KASR 160300Z 01011KT 18/03 A301 RMK A01 T01840032  RH  037%=      5-min Rain = 0
KASR 160305Z 01010G15KT 18/03 A301 RMK A01 T01830031  RH  037%=      5-min Rain = 0
KASR 160310Z 01009G14KT 18/03 A3011 RMK A01 T01820031  RH  037%=      5-min Rain = 0
KASR 160315Z 02009KT 18/03 A3011 RMK A01 T01800031  RH  037%=      5-min Rain = 0
KASR 160320Z 01009G14KT 18/03 A3012 RMK A01 T01790030  RH  037%=      5-min Rain = 0
KASR 160325Z 01008KT 18/03 A3012 RMK A01 T01780030  RH  038%=      5-min Rain = 0
KASR 160330Z 01008G14KT 18/03 A3013 RMK A01 T01750031  RH  038%=      5-min Rain = 0
KASR 160335Z 02008KT 17/03 A3013 RMK A01 T01730031  RH  039%=      5-min Rain = 0
KASR 160340Z 02008KT 17/03 A3014 RMK A01 T01710031  RH  039%=      5-min Rain = 0
KASR 160345Z 02007KT 17/03 A3014 RMK A01 T01700030  RH  040%=      5-min Rain = 0
KASR 160350Z 02008KT 17/03 A3014 RMK A01 T01690031  RH  040%=      5-min Rain = 0
KASR 160355Z 01008KT 17/03 A3015 RMK A01 T01680031  RH  040%=      5-min Rain = 0
KASR 160400Z 01008KT 17/03 A3015 RMK A01 T01670031  RH  041%=      5-min Rain = 0
KASR 160405Z 01007KT 16/03 A3016 RMK A01 T01630031  RH  042%=      5-min Rain = 0
KASR 160410Z 01008KT 16/03 A3016 RMK A01 T01610031  RH  042%=      5-min Rain = 0
KASR 160415Z 01009KT 16/03 A3016 RMK A01 T01610030  RH  042%=      5-min Rain = 0
KASR 160420Z 01011G17KT 17/03 A3016 RMK A01 T01650028  RH  040%=      5-min Rain = 0
KASR 160425Z 02010G15KT 17/03 A3017 RMK A01 T01670027  RH  040%=      5-min Rain = 0
KASR 160430Z 02010G18KT 17/03 A3017 RMK A01 T01670027  RH  040%=      5-min Rain = 0
KASR 160435Z 02009KT 17/03 A3017 RMK A01 T01650027  RH  040%=      5-min Rain = 0
KASR 160440Z 02008G13KT 16/03 A3017 RMK A01 T01620027  RH  041%=      5-min Rain = 0
KASR 160445Z 01009KT 16/03 A3018 RMK A01 T01620027  RH  041%=      5-min Rain = 0
KASR 160450Z 01008KT 16/03 A3018 RMK A01 T01610027  RH  041%=      5-min Rain = 0
KASR 160455Z 01006KT 16/03 A3019 RMK A01 T01570027  RH  042%=      5-min Rain = 0

Page generated in 0.0155 seconds.